Terminal Aerodrome Forecast
Issued by NWS

Home | Current Version | Previous Version | Text Only | Print | Product List | Glossary On
Versions: 1 2 3 4 5 6 7 8 9 10 11 12 13 14 15 16 17 18 19 20 21 22 23 24 25 26 27 28 29 30 31 32 33 34 35
000
FTUS43 KDTX 230101 AAA
TAFPTK
TAF AMD
KPTK 230101Z 2301/2324 18008KT 6SM HZ SCT035
     FM230300 19008KT 5SM BR SCT025 BKN035
     FM230600 20008KT 3SM BR SCT015 OVC025
     FM230900 20010KT 1SM BR OVC015
      TEMPO 2309/2313 1/2SM -SHRA FG OVC008
     FM231400 30010KT P6SM BKN035
     FM231700 31007KT P6SM SCT040 BKN150
     FM232200 01008KT 6SM HZ SCT035 BKN100=

USA.gov is the U.S. government's official web portal to all federal, state and local government web resources and services.